Time;durP1;ratioP1;P1;durP2;ratioP2;P2;SDS_P1;SDS_P2;PMS_P1;PMS_P2;Temp;Humidity;BMP_temperature;BMP_pressure;BME280_temperature;BME280_humidity;BME280_pressure;Samples;Min_cycle;Max_cycle;Signal;HPM_P1;HPM_P2
2021/01/22 00:04:06;;;;;;;11.77;7.60;;;;;;;;;;15011891;29;20752;-75
2021/01/22 00:11:32;;;;;;;12.93;6.63;;;11.30;74.50;;;;;;14958679;29;20202;-80
2021/01/22 00:19:01;;;;;;;10.37;6.40;;;;;;;;;;14972503;29;20320;-83
2021/01/22 00:26:28;;;;;;;12.07;6.80;;;;;;;;;;15013884;29;20218;-80
2021/01/22 00:33:55;;;;;;;9.47;6.30;;;;;;;;;;14994827;29;20198;-79
2021/01/22 00:41:22;;;;;;;9.60;5.83;;;;;;;;;;15012278;29;20325;-82
2021/01/22 00:48:49;;;;;;;10.93;6.20;;;;;;;;;;14977735;29;20439;-84
2021/01/22 00:56:16;;;;;;;9.10;5.33;;;;;;;;;;15011122;29;20230;-81
2021/01/22 01:03:54;;;;;;;10.47;5.27;;;;;;;;;;14997772;29;20210;-81
2021/01/22 01:11:22;;;;;;;11.13;5.90;;;;;;;;;;14992971;29;20198;-82
2021/01/22 01:19:15;;;;;;;10.67;5.83;;;;;;;;;;15004860;29;20265;-82
2021/01/22 01:26:42;;;;;;;10.77;6.50;;;;;;;;;;14993433;29;20229;-80
2021/01/22 01:34:10;;;;;;;10.70;6.37;;;;;;;;;;15011682;29;20657;-81
2021/01/22 01:41:38;;;;;;;11.37;7.37;;;10.90;78.00;;;;;;15009912;29;20198;-74
2021/01/22 01:49:04;;;;;;;9.70;5.70;;;;;;;;;;14989562;29;20700;-74
2021/01/22 01:56:30;;;;;;;10.70;6.40;;;;;;;;;;15008209;29;20230;-74
2021/01/22 02:03:57;;;;;;;10.93;6.63;;;9.10;66.80;;;;;;14990669;29;20218;-74
2021/01/22 02:11:27;;;;;;;11.97;6.40;;;11.60;67.60;;;;;;15007618;29;20641;-74
2021/01/22 02:18:57;;;;;;;10.07;6.27;;;;;;;;;;14990027;29;20249;-75
2021/01/22 02:26:53;;;;;;;12.20;6.80;;;9.40;66.10;;;;;;15008842;29;20787;-75
2021/01/22 02:34:24;;;;;;;9.23;6.43;;;9.00;66.10;;;;;;15009633;29;20595;-74
2021/01/22 02:41:50;;;;;;;8.37;6.10;;;;;;;;;;15018382;29;20196;-75
2021/01/22 02:49:20;;;;;;;11.77;6.13;;;;;;;;;;15016634;29;20237;-75
2021/01/22 02:56:52;;;;;;;9.67;6.33;;;10.20;73.00;;;;;;15000436;29;20229;-75
2021/01/22 03:04:20;;;;;;;11.03;6.20;;;;;;;;;;14999294;29;20229;-75
2021/01/22 03:11:50;;;;;;;8.97;6.03;;;9.00;65.60;;;;;;15018354;29;20210;-75
2021/01/22 03:19:17;;;;;;;6.43;5.20;;;;;;;;;;14998577;29;20232;-75
2021/01/22 03:26:44;;;;;;;8.53;5.73;;;;;;;;;;14999911;29;20218;-76
2021/01/22 03:34:10;;;;;;;10.43;5.73;;;;;;;;;;15015270;29;20563;-75
2021/01/22 03:41:38;;;;;;;7.77;5.43;;;;;;;;;;15014237;29;20250;-75
2021/01/22 03:49:05;;;;;;;8.63;5.10;;;;;;;;;;15015005;29;20285;-73
2021/01/22 03:56:34;;;;;;;8.90;4.83;;;9.70;73.00;;;;;;15016399;29;20229;-74
2021/01/22 04:04:03;;;;;;;6.70;3.80;;;;;;;;;;14996205;29;20201;-75
2021/01/22 04:11:30;;;;;;;7.57;4.33;;;;;;;;;;14980240;29;20269;-74
2021/01/22 04:18:57;;;;;;;7.30;3.90;;;11.50;75.30;;;;;;14996204;29;20301;-74
2021/01/22 04:26:25;;;;;;;6.67;4.20;;;;;;;;;;15012669;29;20788;-76
2021/01/22 04:33:53;;;;;;;5.03;3.50;;;;;;;;;;14979087;29;20212;-75
2021/01/22 04:41:19;;;;;;;5.57;3.17;;;;;;;;;;14994509;29;20538;-75
2021/01/22 04:48:46;;;;;;;6.60;3.63;;;9.40;66.60;;;;;;15011102;29;20226;-75
2021/01/22 04:56:13;;;;;;;5.63;3.57;;;;;;;;;;15011144;29;20226;-76
2021/01/22 05:03:40;;;;;;;6.93;3.80;;;;;;;;;;15009485;29;20221;-74
2021/01/22 05:11:08;;;;;;;5.47;3.80;;;11.20;74.90;;;;;;15009948;29;20217;-74
2021/01/22 05:18:37;;;;;;;6.17;4.07;;;;;;;;;;15009423;29;20227;-76
2021/01/22 05:26:06;;;;;;;6.87;3.67;;;10.20;67.30;;;;;;15009500;29;20222;-74
2021/01/22 05:33:32;;;;;;;6.17;4.20;;;9.00;66.50;;;;;;14975990;29;20198;-75
2021/01/22 05:40:59;;;;;;;4.87;3.30;;;;;;;;;;15009638;29;20202;-74
2021/01/22 05:48:26;;;;;;;6.80;3.73;;;9.10;66.50;;;;;;14989968;29;20559;-75
2021/01/22 05:56:06;;;;;;;6.07;3.80;;;;;;;;;;14990191;29;20237;-73
2021/01/22 06:03:32;;;;;;;6.70;3.40;;;9.00;66.90;;;;;;14991371;29;20214;-74
2021/01/22 06:11:00;;;;;;;9.77;4.10;;;11.80;67.80;;;;;;15007085;29;20194;-74
2021/01/22 06:18:35;;;;;;;5.77;3.47;;;9.60;66.50;;;;;;15006659;29;20604;-75
2021/01/22 06:26:03;;;;;;;6.57;3.23;;;11.40;74.40;;;;;;15005649;29;20680;-75
2021/01/22 06:33:33;;;;;;;5.67;3.13;;;10.30;66.50;;;;;;14990423;29;20194;-75
2021/01/22 06:41:00;;;;;;;5.80;3.40;;;;;;;;;;15005461;29;20289;-75
2021/01/22 06:48:27;;;;;;;7.37;3.30;;;;;;;;;;15004587;29;21224;-76
2021/01/22 06:56:10;;;;;;;8.00;3.20;;;10.40;65.60;;;;;;15003492;29;20230;-76
2021/01/22 07:03:49;;;;;;;6.90;3.70;;;10.70;65.80;;;;;;14956606;29;20635;-74
2021/01/22 07:11:17;;;;;;;6.20;3.17;;;9.80;65.50;;;;;;15005147;29;20194;-76
2021/01/22 07:18:51;;;;;;;8.37;3.57;;;;;;;;;;14996839;29;20221;-75
2021/01/22 07:26:18;;;;;;;10.57;3.43;;;9.20;71.20;;;;;;14994801;29;20259;-75
2021/01/22 07:33:44;;;;;;;7.63;3.33;;;;;;;;;;14996956;29;20581;-78
2021/01/22 07:41:11;;;;;;;6.73;3.60;;;;;;;;;;15013950;29;20278;-77
2021/01/22 07:48:40;;;;;;;5.20;3.50;;;11.90;65.50;;;;;;14995567;29;20277;-76
2021/01/22 07:56:06;;;;;;;7.03;4.03;;;;;;;;;;15011202;29;20691;-77
2021/01/22 08:03:44;;;;;;;5.80;3.73;;;;;;;;;;14997114;29;20790;-75
2021/01/22 08:11:20;;;;;;;6.67;3.90;;;;;;;;;;14991957;29;20205;-75
2021/01/22 08:18:50;;;;;;;10.63;3.70;;;;;;;;;;15006801;29;20601;-81
2021/01/22 08:26:17;;;;;;;8.13;3.70;;;;;;;;;;15015455;29;20332;-83
2021/01/22 08:33:44;;;;;;;8.80;4.10;;;;;;;;;;14991160;29;20322;-82
2021/01/22 08:41:23;;;;;;;11.10;5.10;;;;;;;;;;15022117;29;20190;-85
2021/01/22 08:48:52;;;;;;;11.37;3.67;;;;;;;;;;15012309;29;20222;-81
2021/01/22 08:56:22;;;;;;;7.97;3.80;;;;;;;;;;15011743;29;20233;-80
2021/01/22 09:03:51;;;;;;;10.20;4.50;;;;;;;;;;15004578;29;20217;-80
2021/01/22 09:11:34;;;;;;;10.50;3.57;;;;;;;;;;14984562;29;20230;-84
2021/01/22 09:19:06;;;;;;;11.80;4.03;;;;;;;;;;15029506;29;20218;-88
2021/01/22 09:26:33;;;;;;;13.30;4.37;;;;;;;;;;15038399;29;20284;-80
2021/01/22 09:34:01;;;;;;;12.97;3.90;;;;;;;;;;14977704;29;20281;-82
2021/01/22 09:41:34;;;;;;;8.27;4.00;;;;;;;;;;14975529;29;20606;-80
2021/01/22 09:49:05;;;;;;;10.10;3.30;;;;;;;;;;15016035;29;20628;-82
2021/01/22 09:56:34;;;;;;;16.53;4.63;;;;;;;;;;15010565;29;20599;-81
2021/01/22 10:04:02;;;;;;;12.33;4.00;;;;;;;;;;14991377;29;20684;-79
2021/01/22 10:11:28;;;;;;;19.13;4.10;;;;;;;;;;14978754;29;20311;-85
2021/01/22 10:18:58;;;;;;;9.73;3.93;;;;;;;;;;15013549;29;20236;-83
2021/01/22 10:26:26;;;;;;;15.10;4.57;;;;;;;;;;14991198;29;20719;-82
2021/01/22 10:33:53;;;;;;;24.20;4.47;;;;;;;;;;14990967;29;20194;-82
2021/01/22 10:41:22;;;;;;;15.80;4.37;;;;;;;;;;15007567;29;20281;-83
2021/01/22 10:48:51;;;;;;;8.03;3.67;;;;;;;;;;14986949;29;20549;-88
2021/01/22 10:56:32;;;;;;;10.63;3.70;;;;;;;;;;15022111;29;20237;-89
2021/01/22 11:04:01;;;;;;;7.03;3.27;;;;;;;;;;15001686;29;20253;-85
2021/01/22 11:11:32;;;;;;;7.63;3.60;;;;;;;;;;14984166;29;20204;-81
2021/01/22 11:19:00;;;;;;;11.10;3.80;;;;;;;;;;14999734;29;20725;-82
2021/01/22 11:26:29;;;;;;;7.70;4.03;;;;;;;;;;14987816;29;20217;-87
2021/01/22 11:33:57;;;;;;;12.50;4.13;;;;;;;;;;14990922;29;20202;-78
2021/01/22 11:41:27;;;;;;;10.73;4.70;;;;;;;;;;14998777;29;20270;-84
2021/01/22 11:48:54;;;;;;;9.13;4.00;;;;;;;;;;15018975;29;20722;-81
2021/01/22 11:56:27;;;;;;;7.50;3.80;;;;;;;;;;15016477;29;20301;-83
2021/01/22 12:03:55;;;;;;;12.23;4.50;;;;;;;;;;15004875;29;20241;-90
2021/01/22 12:11:24;;;;;;;12.00;5.63;;;;;;;;;;15018282;29;20268;-85
2021/01/22 12:18:51;;;;;;;12.17;4.27;;;;;;;;;;15001822;29;20240;-86
2021/01/22 12:26:23;;;;;;;10.77;4.30;;;;;;;;;;15015223;29;20244;-88
2021/01/22 12:33:54;;;;;;;9.77;4.67;;;;;;;;;;15026228;29;20194;-87
2021/01/22 12:41:34;;;;;;;8.50;4.63;;;;;;;;;;15007341;29;20520;-87
2021/01/22 12:49:03;;;;;;;15.10;4.73;;;;;;;;;;15002059;29;20235;-89
2021/01/22 12:56:35;;;;;;;8.33;4.73;;;;;;;;;;15004235;29;20233;-80
2021/01/22 13:04:03;;;;;;;10.83;4.87;;;;;;;;;;14996843;29;20233;-83
2021/01/22 13:11:32;;;;;;;10.03;5.13;;;;;;;;;;15012408;29;20257;-85
2021/01/22 13:19:05;;;;;;;10.27;5.20;;;;;;;;;;15000610;29;20281;-86
2021/01/22 13:26:33;;;;;;;9.93;5.77;;;;;;;;;;14986369;29;20299;-87
2021/01/22 13:34:04;;;;;;;9.73;5.90;;;;;;;;;;14996286;29;20277;-79
2021/01/22 13:41:32;;;;;;;11.70;4.97;;;;;;;;;;14993073;29;20214;-75
2021/01/22 13:49:00;;;;;;;13.50;5.90;;;;;;;;;;14986252;29;20234;-76
2021/01/22 13:56:32;;;;;;;12.27;6.50;;;13.10;64.20;;;;;;15001765;29;20230;-76
2021/01/22 14:04:01;;;;;;;12.43;5.27;;;;;;;;;;14989189;29;20233;-85
2021/01/22 14:11:31;;;;;;;10.23;4.70;;;;;;;;;;14992410;29;20229;-80
2021/01/22 14:18:58;;;;;;;9.37;4.50;;;;;;;;;;14989799;29;20643;-79
2021/01/22 14:26:27;;;;;;;8.93;4.30;;;;;;;;;;15016964;29;20539;-81
2021/01/22 14:33:55;;;;;;;12.20;4.37;;;;;;;;;;15004733;29;20206;-88
2021/01/22 14:41:22;;;;;;;8.77;4.10;;;;;;;;;;15004251;29;20198;-84
2021/01/22 14:48:50;;;;;;;9.23;4.80;;;;;;;;;;15009636;29;20222;-85
2021/01/22 14:56:22;;;;;;;9.73;4.77;;;;;;;;;;15003715;29;20261;-82
2021/01/22 15:03:50;;;;;;;9.10;4.77;;;;;;;;;;15008331;29;20193;-82
2021/01/22 15:11:17;;;;;;;13.00;4.93;;;;;;;;;;15010330;29;20201;-81
2021/01/22 15:18:45;;;;;;;11.57;5.50;;;;;;;;;;15011256;29;20218;-84
2021/01/22 15:26:12;;;;;;;12.13;4.67;;;;;;;;;;14994661;29;20623;-86
2021/01/22 15:33:41;;;;;;;9.50;5.13;;;;;;;;;;15012412;29;20192;-84
2021/01/22 15:41:10;;;;;;;11.37;6.33;;;;;;;;;;15005252;29;20192;-86
2021/01/22 15:48:40;;;;;;;11.63;6.40;;;;;;;;;;15026504;29;20626;-86
2021/01/22 15:56:09;;;;;;;13.67;6.23;;;;;;;;;;15010887;29;20622;-85
2021/01/22 16:03:41;;;;;;;12.17;6.70;;;;;;;;;;15014826;29;20212;-88
2021/01/22 16:11:08;;;;;;;15.17;7.07;;;;;;;;;;15030171;29;20210;-89
2021/01/22 16:18:34;;;;;;;15.77;7.23;;;;;;;;;;15030808;29;20221;-86
2021/01/22 16:26:03;;;;;;;12.13;6.43;;;;;;;;;;14989669;29;20281;-80
2021/01/22 16:33:31;;;;;;;13.30;7.27;;;;;;;;;;14975410;29;20277;-82
2021/01/22 16:41:00;;;;;;;16.87;7.60;;;;;;;;;;15019634;29;20200;-78
2021/01/22 16:48:30;;;;;;;13.67;7.30;;;;;;;;;;15011440;29;20238;-79
2021/01/22 16:55:57;;;;;;;14.27;6.80;;;;;;;;;;14996868;29;20225;-81
2021/01/22 17:03:24;;;;;;;11.60;6.57;;;;;;;;;;14996119;29;20221;-82
2021/01/22 17:10:53;;;;;;;13.33;8.00;;;;;;;;;;15014100;29;20228;-81
2021/01/22 17:18:20;;;;;;;16.57;8.23;;;;;;;;;;14999929;29;20214;-85
2021/01/22 17:25:47;;;;;;;14.03;8.00;;;;;;;;;;14992686;29;20228;-86
2021/01/22 17:33:15;;;;;;;17.47;7.47;;;;;;;;;;15009618;29;20205;-78
2021/01/22 17:40:44;;;;;;;12.53;7.23;;;;;;;;;;14989840;29;20633;-86
2021/01/22 17:48:11;;;;;;;14.83;7.90;;;;;;;;;;15008702;29;20577;-83
2021/01/22 17:55:39;;;;;;;12.03;7.90;;;;;;;;;;15008493;29;20600;-79
2021/01/22 18:03:06;;;;;;;16.03;8.80;;;;;;;;;;14976911;29;20207;-79
2021/01/22 18:10:34;;;;;;;15.87;9.33;;;;;;;;;;14991447;29;20218;-79
2021/01/22 18:18:03;;;;;;;14.83;8.60;;;;;;;;;;15040959;29;20250;-88
2021/01/22 18:25:30;;;;;;;16.50;9.80;;;;;;;;;;14998279;29;20249;-91
2021/01/22 18:32:57;;;;;;;18.60;9.43;;;;;;;;;;15001428;29;20194;-86
2021/01/22 18:40:28;;;;;;;18.50;10.37;;;;;;;;;;14989330;29;20242;-80
2021/01/22 18:47:56;;;;;;;19.17;11.47;;;;;;;;;;14989753;29;20261;-82
2021/01/22 18:55:23;;;;;;;20.23;11.10;;;;;;;;;;15007007;29;20237;-82
2021/01/22 19:02:51;;;;;;;18.10;10.90;;;;;;;;;;14988994;29;20206;-82
2021/01/22 19:10:20;;;;;;;17.23;10.50;;;;;;;;;;15003276;29;20249;-80
2021/01/22 19:17:47;;;;;;;19.63;11.87;;;;;;;;;;15013634;29;20330;-80
2021/01/22 19:25:15;;;;;;;15.23;11.57;;;;;;;;;;14999668;29;20230;-81
2021/01/22 19:32:42;;;;;;;17.80;11.77;;;;;;;;;;15017802;29;20198;-81
2021/01/22 19:40:11;;;;;;;17.40;10.53;;;;;;;;;;15016396;29;20225;-82
2021/01/22 19:47:42;;;;;;;19.13;11.40;;;;;;;;;;15002682;29;20232;-79
2021/01/22 19:55:09;;;;;;;16.40;11.27;;;;;;;;;;15002001;29;20230;-80
2021/01/22 20:02:36;;;;;;;18.13;11.63;;;;;;;;;;14992845;29;20218;-81
2021/01/22 20:10:07;;;;;;;18.27;11.97;;;;;;;;;;15002613;29;20253;-83
2021/01/22 20:17:37;;;;;;;15.27;11.60;;;;;;;;;;15000343;29;20238;-86
2021/01/22 20:25:04;;;;;;;22.20;11.03;;;;;;;;;;15060269;29;20278;-83
2021/01/22 20:32:34;;;;;;;17.70;12.37;;;;;;;;;;15036594;29;20264;-81
2021/01/22 20:40:03;;;;;;;16.70;11.77;;;;;;;;;;14991030;29;20448;-80
2021/01/22 20:47:32;;;;;;;15.20;10.70;;;;;;;;;;14991884;29;20226;-80
2021/01/22 20:55:01;;;;;;;16.60;10.80;;;;;;;;;;15012153;29;20347;-84
2021/01/22 21:02:28;;;;;;;16.10;10.10;;;;;;;;;;14999890;29;20194;-82
2021/01/22 21:09:56;;;;;;;19.97;11.00;;;;;;;;;;15004683;29;20226;-86
2021/01/22 21:17:24;;;;;;;17.27;11.57;;;;;;;;;;15020234;29;20218;-81
2021/01/22 21:24:53;;;;;;;15.17;10.20;;;;;;;;;;14945492;29;20206;-84
2021/01/22 21:32:22;;;;;;;15.47;9.50;;;;;;;;;;14981414;29;20277;-80
2021/01/22 21:39:51;;;;;;;15.53;10.97;;;;;;;;;;15000092;29;20193;-87
2021/01/22 21:47:21;;;;;;;17.83;11.90;;;;;;;;;;14996678;29;20640;-80
2021/01/22 21:54:48;;;;;;;17.73;10.87;;;;;;;;;;15011678;29;20238;-83
2021/01/22 22:02:16;;;;;;;16.30;10.40;;;;;;;;;;14961998;29;20202;-86
2021/01/22 22:09:43;;;;;;;15.20;10.87;;;;;;;;;;14957027;29;20218;-80
2021/01/22 22:17:10;;;;;;;15.37;9.80;;;;;;;;;;14997760;29;20658;-84
2021/01/22 22:24:39;;;;;;;16.23;11.67;;;;;;;;;;14997828;29;20655;-78
2021/01/22 22:32:06;;;;;;;15.07;10.67;;;;;;;;;;15014935;29;20269;-75
2021/01/22 22:39:32;;;;;;;16.67;10.60;;;;;;;;;;14991080;29;20583;-76
2021/01/22 22:47:00;;;;;;;16.07;10.83;;;;;;;;;;15013292;29;20253;-75
2021/01/22 22:54:27;;;;;;;17.20;10.30;;;;;;;;;;14984473;29;20252;-75
2021/01/22 23:01:54;;;;;;;16.97;11.97;;;;;;;;;;14996190;29;20202;-73
2021/01/22 23:09:21;;;;;;;19.30;11.83;;;12.40;69.50;;;;;;14975190;29;20230;-74
2021/01/22 23:16:48;;;;;;;18.70;13.17;;;11.00;68.80;;;;;;15013191;29;20250;-74
2021/01/22 23:24:15;;;;;;;18.00;14.90;;;;;;;;;;15014728;29;20199;-73
2021/01/22 23:31:43;;;;;;;17.93;14.17;;;;;;;;;;15016180;29;20226;-73
2021/01/22 23:39:10;;;;;;;20.83;14.77;;;;;;;;;;14997683;29;20217;-73
2021/01/22 23:46:36;;;;;;;21.63;13.97;;;11.00;74.50;;;;;;14996842;29;20226;-73
2021/01/22 23:54:04;;;;;;;18.87;14.53;;;;;;;;;;15003032;29;20238;-74
